Time;durP1;ratioP1;P1;durP2;ratioP2;P2;SDS_P1;SDS_P2;PMS_P1;PMS_P2;Temp;Humidity;BMP_temperature;BMP_pressure;BME280_temperature;BME280_humidity;BME280_pressure;Samples;Min_cycle;Max_cycle;Signal;HPM_P1;HPM_P2
2021/05/09 00:01:35;;;;;;;24.83;15.57;;;1.30;13.90;;;;;;4873147;28;20651;-73
2021/05/09 00:03:57;;;;;;;25.47;15.63;;;;;;;;;;4875314;28;20212;-74
2021/05/09 00:06:20;;;;;;;28.63;17.47;;;;;;;;;;4876905;28;20216;-74
2021/05/09 00:08:43;;;;;;;25.90;17.07;;;1.20;1.00;;;;;;4876679;28;20213;-76
2021/05/09 00:11:05;;;;;;;26.77;16.10;;;;;;;;;;4876636;28;20247;-73
2021/05/09 00:13:27;;;;;;;21.60;14.90;;;;;;;;;;4876766;28;20258;-76
2021/05/09 00:15:51;;;;;;;26.00;16.17;;;;;;;;;;4876476;28;20178;-74
2021/05/09 00:18:13;;;;;;;25.30;16.20;;;1.10;41.40;;;;;;4874999;28;20216;-74
2021/05/09 00:20:36;;;;;;;24.20;14.97;;;1.10;11.30;;;;;;4876634;28;20239;-74
2021/05/09 00:22:59;;;;;;;24.93;14.70;;;;;;;;;;4876485;28;20243;-74
2021/05/09 00:25:22;;;;;;;23.37;15.03;;;0.90;17.10;;;;;;4876746;28;20525;-78
2021/05/09 00:27:44;;;;;;;21.83;13.90;;;;;;;;;;4875416;28;20224;-74
2021/05/09 00:30:08;;;;;;;19.83;12.43;;;1.20;59.30;;;;;;4874153;28;20662;-75
2021/05/09 00:32:30;;;;;;;22.63;12.73;;;0.90;61.40;;;;;;4876384;28;20182;-76
2021/05/09 00:34:52;;;;;;;28.57;13.87;;;1.10;43.80;;;;;;4876249;28;20185;-77
2021/05/09 00:37:14;;;;;;;19.27;12.10;;;1.30;90.60;;;;;;4876501;28;20181;-78
2021/05/09 00:39:36;;;;;;;20.80;12.43;;;1.50;92.60;;;;;;4876362;28;20181;-76
2021/05/09 00:42:03;;;;;;;20.73;11.23;;;1.60;67.90;;;;;;4876218;28;20243;-76
2021/05/09 00:44:25;;;;;;;16.00;10.27;;;;;;;;;;4876387;28;20189;-78
2021/05/09 00:46:47;;;;;;;15.17;10.03;;;;;;;;;;4874458;28;20266;-76
2021/05/09 00:49:10;;;;;;;18.23;10.27;;;1.70;39.70;;;;;;4871717;28;20614;-79
2021/05/09 00:51:32;;;;;;;17.67;9.87;;;1.90;49.00;;;;;;4874912;28;20225;-77
2021/05/09 00:53:56;;;;;;;17.80;9.33;;;1.80;18.20;;;;;;4878396;28;20686;-76
2021/05/09 00:56:20;;;;;;;15.33;9.70;;;2.00;33.30;;;;;;4878708;28;20198;-76
2021/05/09 00:58:44;;;;;;;15.43;9.33;;;1.90;1.00;;;;;;4861823;28;20248;-76
2021/05/09 01:01:09;;;;;;;55.93;16.27;;;2.50;1.00;;;;;;4875686;28;20202;-79
2021/05/09 01:03:35;;;;;;;20.60;9.47;;;1.90;1.00;;;;;;4878547;28;20256;-80
2021/05/09 01:06:00;;;;;;;19.30;10.03;;;2.00;1.00;;;;;;4878179;28;20205;-77
2021/05/09 01:08:24;;;;;;;13.77;8.47;;;2.00;1.00;;;;;;4862088;28;20202;-76
2021/05/09 01:10:47;;;;;;;14.83;9.40;;;;;;;;;;4878478;28;20263;-77
2021/05/09 01:13:09;;;;;;;11.67;8.47;;;;;;;;;;4878383;28;20232;-78
2021/05/09 01:15:33;;;;;;;14.63;8.80;;;2.10;1.00;;;;;;4878556;28;20201;-77
2021/05/09 01:17:56;;;;;;;21.57;9.63;;;;;;;;;;4878128;28;20257;-78
2021/05/09 01:20:34;;;;;;;14.00;8.23;;;2.20;1.00;;;;;;4877884;28;20212;-74
2021/05/09 01:22:57;;;;;;;19.20;9.13;;;;;;;;;;4892468;28;20257;-77
2021/05/09 01:25:19;;;;;;;15.87;8.97;;;;;;;;;;4878698;28;20201;-75
2021/05/09 01:27:44;;;;;;;13.53;8.37;;;2.30;1.00;;;;;;4879677;28;20178;-75
2021/05/09 01:30:09;;;;;;;12.63;8.10;;;2.30;1.00;;;;;;4895022;28;20730;-75
2021/05/09 01:32:32;;;;;;;14.87;8.47;;;2.40;99.90;;;;;;4879861;28;20185;-76
2021/05/09 01:34:55;;;;;;;20.07;9.43;;;2.30;99.90;;;;;;4894641;28;20205;-73
2021/05/09 01:37:18;;;;;;;12.80;8.20;;;2.30;99.90;;;;;;4895209;28;20274;-77
2021/05/09 01:39:40;;;;;;;16.53;8.67;;;2.30;99.90;;;;;;4878210;28;20266;-77
2021/05/09 01:42:03;;;;;;;17.87;8.80;;;2.00;99.90;;;;;;4894638;28;20254;-76
2021/05/09 01:44:28;;;;;;;14.87;8.37;;;2.30;99.90;;;;;;4878024;28;20271;-76
2021/05/09 01:46:50;;;;;;;15.90;8.30;;;;;;;;;;4894485;28;20197;-74
2021/05/09 01:49:12;;;;;;;14.53;8.33;;;2.40;99.90;;;;;;4861620;28;20198;-74
2021/05/09 01:51:35;;;;;;;13.23;8.30;;;2.30;99.90;;;;;;4894525;28;20730;-75
2021/05/09 01:53:58;;;;;;;21.87;9.57;;;2.30;1.00;;;;;;4877648;28;20302;-77
2021/05/09 01:56:20;;;;;;;12.87;8.20;;;2.60;1.00;;;;;;4877612;28;20205;-75
2021/05/09 01:58:42;;;;;;;12.77;8.10;;;2.30;1.00;;;;;;4894397;28;20232;-77
2021/05/09 02:01:11;;;;;;;13.50;8.70;;;2.40;4.30;;;;;;4875946;28;20223;-77
2021/05/09 02:03:47;;;;;;;12.13;8.10;;;;;;;;;;4893875;28;20261;-76
2021/05/09 02:06:12;;;;;;;16.47;8.53;;;;;;;;;;4878241;28;20236;-78
2021/05/09 02:08:35;;;;;;;15.07;8.27;;;;;;;;;;4877162;28;20197;-78
2021/05/09 02:11:07;;;;;;;11.33;8.00;;;2.40;1.00;;;;;;4877240;28;20205;-77
2021/05/09 02:13:30;;;;;;;12.03;7.57;;;1.80;1.00;;;;;;4879224;28;20208;-78
2021/05/09 02:16:03;;;;;;;16.73;8.17;;;2.60;1.00;;;;;;4893751;28;20197;-77
2021/05/09 02:18:26;;;;;;;12.47;7.60;;;2.40;1.00;;;;;;4877134;28;20808;-77
2021/05/09 02:20:48;;;;;;;10.50;7.60;;;2.40;1.00;;;;;;4893749;28;20200;-76
2021/05/09 02:23:11;;;;;;;14.83;8.47;;;2.40;99.90;;;;;;4878520;28;20185;-77
2021/05/09 02:25:34;;;;;;;12.50;7.17;;;2.40;1.00;;;;;;4878783;28;20182;-77
2021/05/09 02:28:00;;;;;;;18.00;8.70;;;2.40;99.90;;;;;;4876880;28;20197;-77
2021/05/09 02:30:23;;;;;;;13.30;8.00;;;2.40;1.00;;;;;;4893559;28;20201;-78
2021/05/09 02:32:46;;;;;;;14.93;8.00;;;2.40;99.90;;;;;;4893718;28;20226;-77
2021/05/09 02:35:09;;;;;;;11.30;7.53;;;2.30;99.90;;;;;;4893733;28;20201;-78
2021/05/09 02:37:31;;;;;;;16.67;8.47;;;2.30;1.00;;;;;;4877010;28;20189;-78
2021/05/09 02:39:54;;;;;;;17.00;8.47;;;2.30;99.90;;;;;;4893235;28;20278;-74
2021/05/09 02:42:16;;;;;;;12.93;7.60;;;2.30;99.90;;;;;;4864766;28;20271;-76
2021/05/09 02:44:39;;;;;;;14.37;7.70;;;2.40;1.00;;;;;;4878476;28;20189;-78
2021/05/09 02:47:02;;;;;;;15.70;8.13;;;2.30;99.90;;;;;;4876710;28;20197;-76
2021/05/09 02:49:25;;;;;;;11.90;7.77;;;2.50;1.00;;;;;;4878412;28;20192;-75
2021/05/09 02:51:49;;;;;;;12.93;7.80;;;2.50;99.90;;;;;;4877887;28;20206;-74
2021/05/09 02:54:11;;;;;;;14.63;8.23;;;2.40;1.00;;;;;;4877940;28;20627;-73
2021/05/09 02:56:33;;;;;;;13.43;8.13;;;3.10;1.00;;;;;;4893213;28;20231;-74
2021/05/09 02:58:57;;;;;;;18.07;9.17;;;2.30;99.90;;;;;;4877819;28;20278;-74
2021/05/09 03:01:20;;;;;;;11.53;7.87;;;2.40;99.90;;;;;;4874677;28;20251;-74
2021/05/09 03:03:43;;;;;;;13.17;7.90;;;;;;;;;;4876323;28;20213;-75
2021/05/09 03:06:06;;;;;;;15.80;8.53;;;2.60;99.90;;;;;;4876321;28;20197;-75
2021/05/09 03:08:29;;;;;;;14.67;7.87;;;2.30;99.90;;;;;;4876306;28;20744;-74
2021/05/09 03:10:51;;;;;;;16.50;8.30;;;2.60;99.90;;;;;;4859328;28;20194;-75
2021/05/09 03:13:14;;;;;;;10.97;7.10;;;2.70;99.90;;;;;;4893259;28;20243;-75
2021/05/09 03:15:37;;;;;;;10.97;6.60;;;2.80;1.00;;;;;;4877395;28;20185;-74
2021/05/09 03:18:00;;;;;;;17.50;8.07;;;2.50;1.00;;;;;;4877490;28;20190;-74
2021/05/09 03:20:22;;;;;;;12.43;7.47;;;2.90;1.00;;;;;;4877257;28;20608;-74
2021/05/09 03:22:44;;;;;;;12.90;8.33;;;2.90;1.00;;;;;;4878019;28;20186;-75
2021/05/09 03:25:07;;;;;;;14.33;9.13;;;1.80;51.90;;;;;;4875409;28;20197;-76
2021/05/09 03:27:29;;;;;;;13.37;9.57;;;3.10;99.90;;;;;;4877607;28;20232;-75
2021/05/09 03:29:51;;;;;;;18.20;9.63;;;3.20;1.00;;;;;;4875813;28;20296;-75
2021/05/09 03:32:13;;;;;;;12.83;7.83;;;3.50;99.90;;;;;;4877765;28;20227;-75
2021/05/09 03:34:36;;;;;;;10.37;6.43;;;3.50;1.00;;;;;;4877589;28;20647;-75
2021/05/09 03:36:58;;;;;;;15.67;7.83;;;3.40;99.90;;;;;;4875734;28;20205;-76
2021/05/09 03:39:21;;;;;;;10.43;6.30;;;;;;;;;;4877360;28;20213;-74
2021/05/09 03:41:43;;;;;;;13.43;7.03;;;3.70;99.90;;;;;;4892568;28;20242;-73
2021/05/09 03:44:06;;;;;;;16.00;7.33;;;3.70;27.60;;;;;;4877022;28;20605;-74
2021/05/09 03:46:28;;;;;;;7.23;5.57;;;4.70;5.80;;;;;;4875926;28;20630;-75
2021/05/09 03:48:50;;;;;;;10.70;6.50;;;3.70;99.90;;;;;;4877184;28;20177;-77
2021/05/09 03:51:13;;;;;;;8.37;5.40;;;4.00;99.90;;;;;;4877337;28;20734;-75
2021/05/09 03:53:36;;;;;;;9.27;5.80;;;;;;;;;;4877148;28;20267;-75
2021/05/09 03:55:58;;;;;;;15.87;6.50;;;4.10;99.90;;;;;;4875213;28;20201;-74
2021/05/09 03:58:21;;;;;;;11.43;5.77;;;;;;;;;;4876996;28;20186;-74
2021/05/09 04:00:46;;;;;;;25.53;8.47;;;4.00;40.80;;;;;;4857319;28;20192;-74
2021/05/09 04:03:22;;;;;;;8.13;5.47;;;4.40;99.90;;;;;;4875837;28;20189;-74
2021/05/09 04:05:47;;;;;;;10.00;5.67;;;4.60;1.00;;;;;;4875542;28;20197;-74
2021/05/09 04:08:09;;;;;;;6.90;5.00;;;4.60;1.00;;;;;;4874826;28;20682;-75
2021/05/09 04:10:32;;;;;;;7.77;5.07;;;;;;;;;;4876951;28;20235;-74
2021/05/09 04:12:54;;;;;;;19.13;7.30;;;;;;;;;;4857982;28;20189;-74
2021/05/09 04:15:17;;;;;;;10.07;5.43;;;5.30;99.90;;;;;;4876880;28;20246;-75
2021/05/09 04:17:39;;;;;;;9.77;5.30;;;4.70;99.90;;;;;;4875650;28;20190;-74
2021/05/09 04:20:02;;;;;;;11.57;5.73;;;4.90;82.70;;;;;;4876642;28;20267;-74
2021/05/09 04:22:24;;;;;;;11.07;5.90;;;;;;;;;;4875188;28;20255;-74
2021/05/09 04:24:47;;;;;;;11.40;6.07;;;4.90;99.90;;;;;;4874734;28;20216;-74
2021/05/09 04:27:10;;;;;;;17.30;8.47;;;4.70;1.00;;;;;;4875758;28;20182;-74
2021/05/09 04:29:32;;;;;;;17.63;8.17;;;4.70;1.00;;;;;;4874114;28;20198;-74
2021/05/09 04:31:54;;;;;;;14.57;6.50;;;4.60;99.90;;;;;;4876376;28;20211;-73
2021/05/09 04:34:16;;;;;;;9.27;5.20;;;4.60;86.40;;;;;;4876674;28;20242;-74
2021/05/09 04:36:38;;;;;;;7.30;4.40;;;;;;;;;;4876569;28;20239;-75
2021/05/09 04:39:00;;;;;;;13.03;4.90;;;4.80;99.90;;;;;;4876211;28;20255;-74
2021/05/09 04:41:23;;;;;;;8.33;4.73;;;4.90;99.90;;;;;;4876514;28;20235;-73
2021/05/09 04:43:46;;;;;;;10.67;4.80;;;;;;;;;;4874736;28;20217;-74
2021/05/09 04:46:08;;;;;;;8.30;4.53;;;4.90;98.50;;;;;;4873637;28;20198;-74
2021/05/09 04:48:30;;;;;;;7.17;4.10;;;4.90;99.90;;;;;;4876500;28;20590;-73
2021/05/09 04:50:53;;;;;;;14.30;5.00;;;5.10;99.90;;;;;;4876238;28;20201;-74
2021/05/09 04:53:25;;;;;;;7.57;4.20;;;4.20;99.90;;;;;;4874612;28;20575;-75
2021/05/09 04:55:48;;;;;;;5.43;3.80;;;;;;;;;;4875812;28;20207;-78
2021/05/09 04:58:11;;;;;;;9.47;4.17;;;5.30;1.00;;;;;;4876478;28;20181;-74
2021/05/09 05:00:33;;;;;;;52.93;11.63;;;;;;;;;;4874183;28;20294;-76
2021/05/09 05:02:55;;;;;;;12.73;4.70;;;;;;;;;;4876217;28;20181;-75
2021/05/09 05:05:19;;;;;;;7.00;3.67;;;5.20;1.00;;;;;;4875264;28;20276;-77
2021/05/09 05:07:41;;;;;;;6.60;3.47;;;5.90;99.90;;;;;;4876520;28;20243;-74
2021/05/09 05:10:04;;;;;;;8.17;3.80;;;6.40;1.00;;;;;;4874182;28;20194;-78
2021/05/09 05:12:27;;;;;;;4.53;2.83;;;;;;;;;;4876514;28;20189;-77
2021/05/09 05:14:50;;;;;;;9.20;3.30;;;6.30;99.90;;;;;;4874717;28;20190;-76
2021/05/09 05:17:12;;;;;;;6.50;3.07;;;6.40;96.00;;;;;;4876215;28;20235;-77
2021/05/09 05:19:34;;;;;;;7.60;3.33;;;;;;;;;;4873678;28;20221;-74
2021/05/09 05:21:56;;;;;;;10.93;3.70;;;6.20;1.00;;;;;;4875906;28;20185;-77
2021/05/09 05:24:19;;;;;;;6.03;2.70;;;;;;;;;;4876158;28;20635;-78
2021/05/09 05:26:41;;;;;;;5.93;2.70;;;6.80;99.90;;;;;;4876273;28;20182;-75
2021/05/09 05:29:03;;;;;;;10.00;3.17;;;;;;;;;;4875882;28;20531;-77
2021/05/09 05:31:26;;;;;;;6.33;2.77;;;6.80;1.00;;;;;;4876080;28;20672;-77
2021/05/09 05:33:49;;;;;;;5.00;2.33;;;;;;;;;;4874127;28;20236;-77
2021/05/09 05:36:11;;;;;;;3.50;1.93;;;;;;;;;;4891434;28;20184;-78
2021/05/09 05:38:33;;;;;;;5.67;2.27;;;;;;;;;;4873799;28;20282;-77
2021/05/09 05:40:57;;;;;;;10.10;3.17;;;7.50;1.00;;;;;;4894428;28;20238;-77
2021/05/09 05:43:19;;;;;;;5.07;2.23;;;;;;;;;;4877925;28;20201;-78
2021/05/09 05:45:41;;;;;;;6.80;2.43;;;8.00;99.90;;;;;;4877446;28;20205;-79
2021/05/09 05:48:05;;;;;;;10.97;3.37;;;8.10;1.00;;;;;;4879079;28;20732;-76
2021/05/09 05:50:27;;;;;;;5.13;2.10;;;8.30;2.90;;;;;;4877606;28;20221;-77
2021/05/09 05:52:49;;;;;;;3.03;1.77;;;9.10;99.90;;;;;;4877484;28;20259;-78
2021/05/09 05:55:12;;;;;;;4.30;1.83;;;9.10;99.90;;;;;;4877546;28;20606;-74
2021/05/09 05:57:34;;;;;;;6.93;2.37;;;8.80;99.90;;;;;;4877726;28;20299;-79
2021/05/09 05:59:56;;;;;;;10.37;2.70;;;;;;;;;;4877718;28;20362;-74
2021/05/09 06:02:21;;;;;;;5.77;2.07;;;;;;;;;;4877299;28;20244;-74
2021/05/09 06:04:44;;;;;;;3.93;1.80;;;9.10;99.90;;;;;;4879237;28;20185;-77
2021/05/09 06:07:06;;;;;;;7.20;2.30;;;;;;;;;;4877231;28;20205;-74
2021/05/09 06:09:29;;;;;;;3.17;1.60;;;;;;;;;;4877059;28;20839;-79
2021/05/09 06:11:51;;;;;;;6.10;1.90;;;10.20;99.90;;;;;;4877005;28;20202;-74
2021/05/09 06:14:13;;;;;;;4.70;1.83;;;10.60;99.90;;;;;;4877945;28;20539;-76
2021/05/09 06:16:35;;;;;;;8.07;2.37;;;;;;;;;;4878949;28;20185;-78
2021/05/09 06:18:57;;;;;;;11.63;2.93;;;10.70;1.00;;;;;;4878353;28;20247;-77
2021/05/09 06:21:20;;;;;;;4.43;2.00;;;11.20;99.90;;;;;;4877764;28;20662;-76
2021/05/09 06:23:42;;;;;;;6.43;2.23;;;;;;;;;;4860550;28;20193;-75
2021/05/09 06:26:04;;;;;;;8.93;2.57;;;11.00;99.90;;;;;;4878753;28;20239;-75
2021/05/09 06:28:27;;;;;;;5.37;1.77;;;;;;;;;;4878780;28;20186;-73
2021/05/09 06:30:49;;;;;;;2.73;1.47;;;11.40;1.00;;;;;;4876743;28;20255;-76
2021/05/09 06:33:12;;;;;;;5.40;1.73;;;11.20;99.90;;;;;;4878298;28;20250;-73
2021/05/09 06:35:38;;;;;;;6.03;1.83;;;11.10;1.00;;;;;;4878545;28;20243;-72
2021/05/09 06:38:01;;;;;;;11.77;2.83;;;11.30;99.90;;;;;;4878392;28;20231;-73
2021/05/09 06:40:24;;;;;;;5.07;1.83;;;;;;;;;;4876970;28;20274;-77
2021/05/09 06:42:46;;;;;;;5.73;1.73;;;;;;;;;;4876641;28;20725;-74
2021/05/09 06:45:13;;;;;;;5.33;1.50;;;11.60;99.90;;;;;;4874997;28;20202;-74
2021/05/09 06:47:35;;;;;;;8.50;2.00;;;11.80;1.00;;;;;;4862899;28;20194;-74
2021/05/09 06:49:58;;;;;;;10.33;2.47;;;;;;;;;;4858529;28;20182;-75
2021/05/09 06:52:23;;;;;;;6.60;1.70;;;;;;;;;;4857863;28;20613;-73
2021/05/09 06:54:46;;;;;;;6.33;1.53;;;12.10;99.90;;;;;;4858334;28;20214;-73
2021/05/09 06:57:09;;;;;;;4.63;1.30;;;12.30;99.90;;;;;;4859018;28;20239;-75
2021/05/09 06:59:32;;;;;;;6.10;1.47;;;12.50;99.90;;;;;;4841016;28;20215;-74
2021/05/09 07:01:54;;;;;;;14.63;2.77;;;;;;;;;;4855271;28;20206;-74
2021/05/09 07:04:19;;;;;;;8.00;1.83;;;;;;;;;;4857552;28;20244;-77
2021/05/09 07:06:41;;;;;;;13.10;2.37;;;;;;;;;;4858787;28;20232;-76
2021/05/09 07:09:06;;;;;;;15.70;2.83;;;13.20;99.90;;;;;;4858450;28;20190;-74
2021/05/09 07:11:31;;;;;;;4.20;0.93;;;13.50;99.90;;;;;;4869513;28;20258;-74
2021/05/09 07:13:53;;;;;;;7.67;1.83;;;;;;;;;;4869168;28;20591;-75
2021/05/09 07:16:15;;;;;;;4.83;1.33;;;;;;;;;;4864564;28;20683;-74
2021/05/09 07:18:38;;;;;;;3.60;1.10;;;;;;;;;;4878142;28;20303;-73
2021/05/09 07:21:02;;;;;;;12.83;2.40;;;;;;;;;;4877458;28;20213;-77
2021/05/09 07:23:26;;;;;;;5.20;1.33;;;14.90;99.90;;;;;;4877914;28;20232;-77
2021/05/09 07:25:48;;;;;;;6.17;1.57;;;;;;;;;;4876164;28;20247;-76
2021/05/09 07:28:13;;;;;;;3.03;1.03;;;15.20;99.90;;;;;;4892696;28;20216;-75
2021/05/09 07:30:37;;;;;;;7.33;1.60;;;15.40;99.90;;;;;;4876207;28;20202;-74
2021/05/09 07:32:59;;;;;;;15.87;3.00;;;16.00;99.90;;;;;;4870069;28;20201;-74
2021/05/09 07:35:21;;;;;;;12.33;2.40;;;;;;;;;;4860103;28;20255;-75
2021/05/09 07:37:43;;;;;;;7.23;1.60;;;;;;;;;;4856889;28;20626;-75
2021/05/09 07:40:06;;;;;;;10.60;2.07;;;16.10;99.90;;;;;;4856383;28;20308;-76
2021/05/09 07:42:29;;;;;;;9.47;1.93;;;;;;;;;;4856908;28;20228;-74
2021/05/09 07:44:56;;;;;;;6.10;1.40;;;16.40;99.90;;;;;;4860583;28;20221;-76
2021/05/09 07:47:18;;;;;;;8.10;1.70;;;;;;;;;;4877575;28;20189;-80
2021/05/09 07:49:40;;;;;;;9.47;1.70;;;;;;;;;;4876063;28;20202;-75
2021/05/09 07:52:02;;;;;;;10.23;2.03;;;;;;;;;;4877100;28;20186;-75
2021/05/09 07:54:25;;;;;;;6.80;1.43;;;;;;;;;;4877002;28;20752;-75
2021/05/09 07:56:47;;;;;;;7.50;1.50;;;;;;;;;;4858910;28;20267;-75
2021/05/09 07:59:09;;;;;;;10.90;1.97;;;;;;;;;;4856077;28;20202;-76
2021/05/09 08:01:32;;;;;;;3.33;0.87;;;16.70;99.90;;;;;;4837963;28;20736;-76
2021/05/09 08:03:55;;;;;;;9.33;1.83;;;;;;;;;;4873193;28;20231;-76
2021/05/09 08:06:17;;;;;;;4.43;1.00;;;;;;;;;;4856410;28;20201;-77
2021/05/09 08:08:39;;;;;;;5.87;1.20;;;;;;;;;;4855714;28;20256;-77
2021/05/09 08:11:01;;;;;;;12.30;2.10;;;16.90;99.90;;;;;;4839345;28;20190;-76
2021/05/09 08:13:24;;;;;;;7.23;1.33;;;;;;;;;;4856143;28;20206;-78
2021/05/09 08:15:46;;;;;;;4.90;1.07;;;;;;;;;;4857125;28;20236;-77
2021/05/09 08:18:09;;;;;;;12.03;2.10;;;17.20;99.90;;;;;;4857245;28;20186;-77
2021/05/09 08:20:31;;;;;;;3.80;0.80;;;;;;;;;;4857446;28;20287;-76
2021/05/09 08:22:54;;;;;;;12.03;1.87;;;;;;;;;;4857382;28;20236;-75
2021/05/09 08:25:17;;;;;;;7.83;1.37;;;;;;;;;;4857496;28;20237;-75
2021/05/09 08:27:39;;;;;;;8.33;1.40;;;;;;;;;;4855832;28;20531;-76
2021/05/09 08:30:01;;;;;;;13.50;2.00;;;;;;;;;;4839966;28;20190;-76
2021/05/09 08:32:24;;;;;;;5.00;0.93;;;17.50;99.90;;;;;;4857760;28;20189;-76
2021/05/09 08:34:47;;;;;;;5.37;0.97;;;17.70;99.90;;;;;;4857689;28;20194;-76
2021/05/09 08:37:09;;;;;;;10.30;1.67;;;;;;;;;;4857484;28;20190;-76
2021/05/09 08:39:32;;;;;;;3.30;0.73;;;;;;;;;;4857285;28;20611;-76
2021/05/09 08:41:54;;;;;;;13.10;1.90;;;;;;;;;;4856001;28;20229;-77
2021/05/09 08:44:17;;;;;;;5.50;1.00;;;;;;;;;;4839637;28;20194;-74
2021/05/09 08:46:39;;;;;;;3.60;0.80;;;;;;;;;;4855854;28;20248;-77
2021/05/09 08:49:03;;;;;;;14.57;2.00;;;18.30;99.90;;;;;;4838978;28;20545;-77
2021/05/09 08:51:26;;;;;;;6.90;1.10;;;18.50;99.90;;;;;;4856291;28;20221;-74
2021/05/09 08:53:49;;;;;;;6.70;1.00;;;;;;;;;;4848150;28;20222;-76
2021/05/09 08:56:11;;;;;;;5.90;1.53;;;;;;;;;;4858799;28;20256;-77
2021/05/09 08:58:34;;;;;;;74.20;68.17;;;;;;;;;;4875170;28;20198;-77
2021/05/09 09:00:56;;;;;;;55.43;44.17;;;;;;;;;;4872679;28;20229;-76
2021/05/09 09:03:18;;;;;;;123.67;112.33;;;20.20;99.90;;;;;;4876519;28;20235;-77
2021/05/09 09:05:42;;;;;;;138.30;119.23;;;20.80;99.90;;;;;;4874887;28;20189;-75
2021/05/09 09:08:06;;;;;;;32.00;23.67;;;;;;;;;;4891318;28;20255;-77
2021/05/09 09:10:34;;;;;;;224.27;145.93;;;22.20;99.90;;;;;;4876423;28;20178;-78
2021/05/09 09:12:59;;;;;;;407.50;175.90;;;;;;;;;;4875182;28;20239;-75
2021/05/09 09:15:21;;;;;;;257.43;160.90;;;;;;;;;;4879501;28;20186;-75
2021/05/09 09:17:43;;;;;;;39.93;36.27;;;;;;;;;;4878675;28;20201;-76
2021/05/09 09:20:12;;;;;;;124.20;113.40;;;27.60;99.90;;;;;;4860991;28;20783;-77
2021/05/09 09:22:52;;;;;;;150.07;137.93;;;29.30;99.90;;;;;;4879990;28;20615;-78
2021/05/09 09:25:15;;;;;;;253.73;225.97;;;30.90;99.90;;;;;;4880303;28;20175;-77
2021/05/09 09:27:42;;;;;;;253.23;230.10;;;32.60;99.90;;;;;;4861591;28;20200;-77
2021/05/09 09:30:05;;;;;;;431.90;290.27;;;33.80;99.90;;;;;;4879553;28;20781;-79
2021/05/09 09:32:27;;;;;;;18.33;16.53;;;;;;;;;;4880047;28;20238;-76
2021/05/09 09:34:50;;;;;;;163.87;154.73;;;;;;;;;;4879663;28;20532;-76
2021/05/09 09:37:13;;;;;;;226.05;212.10;;;35.30;99.90;;;;;;4879744;28;20182;-76
2021/05/09 09:39:47;;;;;;;340.17;308.03;;;34.80;99.90;;;;;;4879681;28;20185;-77
2021/05/09 09:42:10;;;;;;;130.35;120.90;;;35.20;99.90;;;;;;4878237;28;20224;-78
2021/05/09 09:44:32;;;;;;;272.30;253.93;;;;;;;;;;4878192;28;20740;-76
2021/05/09 09:46:54;;;;;;;280.83;259.83;;;;;;;;;;4879405;28;20650;-75
2021/05/09 09:49:22;;;;;;;367.50;333.55;;;36.30;99.90;;;;;;4878195;28;20596;-77
2021/05/09 09:51:49;;;;;;;320.80;295.52;;;35.70;99.90;;;;;;4894625;28;20701;-79
2021/05/09 09:54:11;;;;;;;430.52;334.83;;;;;;;;;;4878167;28;20228;-75
2021/05/09 09:56:42;;;;;;;210.80;198.23;;;37.80;99.90;;;;;;4894713;28;20604;-83
2021/05/09 09:59:05;;;;;;;294.48;274.50;;;39.10;99.90;;;;;;4894189;28;20552;-78
2021/05/09 10:01:28;;;;;;;319.65;299.23;;;39.10;99.90;;;;;;4876180;28;20624;-79
2021/05/09 10:03:52;;;;;;;385.45;357.33;;;39.90;99.90;;;;;;4877637;28;20314;-79
2021/05/09 10:06:14;;;;;;;392.50;358.42;;;;;;;;;;4878158;28;20205;-77
2021/05/09 10:08:37;;;;;;;400.70;366.00;;;41.20;99.90;;;;;;4877917;28;20732;-78
2021/05/09 10:11:01;;;;;;;397.02;363.65;;;40.70;99.90;;;;;;4879294;28;20201;-75
2021/05/09 10:13:23;;;;;;;439.70;399.50;;;;;;;;;;4878192;28;20683;-76
2021/05/09 10:15:46;;;;;;;307.83;288.83;;;40.40;99.90;;;;;;4861110;28;20190;-77
2021/05/09 10:18:09;;;;;;;387.55;359.92;;;;;;;;;;4877762;28;20201;-78
2021/05/09 10:20:31;;;;;;;367.50;343.88;;;;;;;;;;4877939;28;20209;-78
2021/05/09 10:23:04;;;;;;;364.52;340.80;;;40.70;99.90;;;;;;4878988;28;20189;-76
2021/05/09 10:25:44;;;;;;;362.48;338.38;;;40.20;99.90;;;;;;4879031;28;20185;-79
2021/05/09 10:28:10;;;;;;;456.75;410.73;;;40.50;99.90;;;;;;4893870;28;20199;-75
2021/05/09 10:30:43;;;;;;;449.02;407.05;;;41.20;99.90;;;;;;4877114;28;20283;-80
2021/05/09 10:33:06;;;;;;;451.00;403.52;;;41.40;99.90;;;;;;4877206;28;20736;-76
2021/05/09 10:35:38;;;;;;;441.95;400.55;;;41.20;99.90;;;;;;4878738;28;20239;-78
2021/05/09 10:38:05;;;;;;;457.42;402.20;;;41.80;99.90;;;;;;4878684;28;20173;-78
2021/05/09 10:40:31;;;;;;;453.40;403.73;;;42.40;99.90;;;;;;4877237;28;20236;-75
2021/05/09 10:43:30;;;;;;;456.95;411.05;;;43.20;99.90;;;;;;4878496;28;20694;-80
2021/05/09 10:45:55;;;;;;;475.67;425.08;;;44.80;99.90;;;;;;4876372;28;20590;-77
2021/05/09 10:48:39;;;;;;;15.07;8.85;;;45.10;99.90;;;;;;4878220;28;20196;-78
2021/05/09 10:51:25;;;;;;;15.43;2.22;;;45.50;1.00;;;;;;4862976;28;20209;-77
2021/05/09 10:53:47;;;;;;;5.82;1.08;;;45.70;1.00;;;;;;4859243;28;20229;-77
2021/05/09 10:56:33;;;;;;;15.15;2.10;;;44.50;99.90;;;;;;4871997;28;20174;-77
2021/05/09 10:58:57;;;;;;;12.80;1.88;;;44.50;1.00;;;;;;4870212;28;20181;-77
2021/05/09 11:01:21;;;;;;;7.72;1.25;;;44.40;1.00;;;;;;4855012;28;20193;-76
2021/05/09 11:03:52;;;;;;;7.20;1.27;;;44.80;1.00;;;;;;4879830;28;20242;-75
2021/05/09 11:06:16;;;;;;;5.25;0.98;;;43.80;99.90;;;;;;4876926;28;20185;-77
2021/05/09 11:08:57;;;;;;;8.32;1.35;;;41.70;99.90;;;;;;4856996;28;20725;-77
2021/05/09 11:11:20;;;;;;;5.18;0.90;;;40.90;99.90;;;;;;4859044;28;20206;-77
2021/05/09 11:14:19;;;;;;;13.38;2.03;;;40.80;1.00;;;;;;4872357;28;20185;-76
2021/05/09 11:16:42;;;;;;;7.47;1.20;;;39.60;99.90;;;;;;4876792;28;20201;-82
2021/05/09 11:19:08;;;;;;;16.38;2.38;;;40.00;1.00;;;;;;4863428;28;20582;-75
2021/05/09 11:21:32;;;;;;;8.52;1.40;;;41.00;1.00;;;;;;4858821;28;20663;-76
2021/05/09 11:23:54;;;;;;;7.00;1.20;;;42.70;1.00;;;;;;4869364;28;20196;-75
2021/05/09 11:26:21;;;;;;;5.20;1.05;;;43.50;99.90;;;;;;4878070;28;20185;-75
2021/05/09 11:28:43;;;;;;;7.00;1.20;;;;;;;;;;4866040;28;20674;-76
2021/05/09 11:31:26;;;;;;;11.27;1.75;;;44.30;99.90;;;;;;4856617;28;20776;-78
2021/05/09 11:33:51;;;;;;;7.55;1.23;;;43.60;1.00;;;;;;4867135;28;20227;-74
2021/05/09 11:36:25;;;;;;;4.78;2.83;;;44.20;99.90;;;;;;4858407;28;20237;-75
2021/05/09 11:38:47;;;;;;;8.43;1.48;;;45.60;1.00;;;;;;4866154;28;20197;-73
2021/05/09 11:41:09;;;;;;;18.58;2.67;;;;;;;;;;4892343;28;20200;-78
2021/05/09 11:43:31;;;;;;;6.32;1.10;;;46.90;1.00;;;;;;4875561;28;20367;-74
2021/05/09 11:45:54;;;;;;;12.38;1.88;;;48.10;1.00;;;;;;4877335;28;20235;-76
2021/05/09 11:48:24;;;;;;;9.10;1.60;;;48.80;1.00;;;;;;4875929;28;20193;-75
2021/05/09 11:50:53;;;;;;;10.77;4.05;;;49.00;99.90;;;;;;4877496;28;20208;-76
2021/05/09 11:53:21;;;;;;;6.60;1.45;;;48.70;1.00;;;;;;4856109;28;20205;-76
2021/05/09 11:55:43;;;;;;;14.23;2.40;;;46.50;1.00;;;;;;4856380;28;20201;-75
2021/05/09 11:58:13;;;;;;;10.30;1.60;;;46.00;1.00;;;;;;4849500;28;20201;-75
2021/05/09 12:00:35;;;;;;;97.60;12.05;;;;;;;;;;4873418;28;20623;-76
2021/05/09 12:02:57;;;;;;;9.60;1.52;;;;;;;;;;4857864;28;20177;-77
2021/05/09 12:05:21;;;;;;;10.73;1.95;;;43.00;99.90;;;;;;4858065;28;20208;-77
2021/05/09 12:07:44;;;;;;;9.85;1.65;;;44.20;99.90;;;;;;4856575;28;20233;-74
2021/05/09 12:10:11;;;;;;;16.15;2.25;;;44.30;99.90;;;;;;4857519;28;20189;-76
2021/05/09 12:12:35;;;;;;;5.93;1.05;;;45.00;1.00;;;;;;4857888;28;20190;-77
2021/05/09 12:15:07;;;;;;;17.48;2.50;;;45.60;99.90;;;;;;4856344;28;20206;-77
2021/05/09 12:17:30;;;;;;;6.20;1.13;;;45.90;1.00;;;;;;4857995;28;20178;-75
2021/05/09 12:19:54;;;;;;;7.97;1.27;;;45.00;99.90;;;;;;4856189;28;20282;-73
2021/05/09 12:22:16;;;;;;;11.63;1.77;;;45.90;1.00;;;;;;4857479;28;20185;-78
2021/05/09 12:25:02;;;;;;;6.82;1.20;;;44.20;1.00;;;;;;4839815;28;20205;-74
2021/05/09 12:27:26;;;;;;;5.55;1.00;;;43.10;99.90;;;;;;4832926;28;20213;-75
2021/05/09 12:29:50;;;;;;;5.85;1.10;;;42.30;99.90;;;;;;4855963;28;20197;-77
2021/05/09 12:32:24;;;;;;;3.90;0.93;;;42.80;1.00;;;;;;4857565;28;20217;-76
2021/05/09 12:35:04;;;;;;;5.15;0.95;;;42.10;1.00;;;;;;4856380;28;20190;-76
2021/05/09 12:37:29;;;;;;;5.43;1.05;;;;;;;;;;4857492;28;20247;-76
2021/05/09 12:40:16;;;;;;;4.95;1.00;;;41.10;99.90;;;;;;4856128;28;20189;-74
2021/05/09 12:42:52;;;;;;;9.55;1.42;;;39.60;99.90;;;;;;4857260;28;20666;-74
2021/05/09 12:45:44;;;;;;;5.18;0.93;;;39.40;99.90;;;;;;4856307;28;20243;-77
2021/05/09 12:48:09;;;;;;;17.67;2.47;;;39.70;1.00;;;;;;4860718;28;20220;-80
2021/05/09 12:50:58;;;;;;;3.20;0.70;;;40.80;1.00;;;;;;4875762;28;20262;-76
2021/05/09 12:53:50;;;;;;;6.97;2.00;;;40.80;1.00;;;;;;4861310;28;20208;-76
2021/05/09 12:56:24;;;;;;;8.50;1.35;;;40.20;99.90;;;;;;4858613;28;20205;-74
2021/05/09 12:59:11;;;;;;;7.57;1.33;;;40.30;1.00;;;;;;4860087;28;20189;-77
2021/05/09 13:01:36;;;;;;;3.40;0.73;;;40.10;99.90;;;;;;4858409;28;20667;-76